Time;durP1;ratioP1;P1;durP2;ratioP2;P2;SDS_P1;SDS_P2;PMS_P1;PMS_P2;Temp;Humidity;BMP_temperature;BMP_pressure;BME280_temperature;BME280_humidity;BME280_pressure;Samples;Min_cycle;Max_cycle;Signal;HPM_P1;HPM_P2
2023/04/12 00:01:49;;;;;;;7.10;3.07;;;;;;;;;;5071621;28;20807;-56
2023/04/12 00:04:15;;;;;;;6.27;2.70;;;;;;;;;;5072098;28;20440;-55
2023/04/12 00:06:41;;;;;;;5.23;3.20;;;;;;;;;;5071676;28;20243;-55
2023/04/12 00:09:08;;;;;;;7.37;2.93;;;;;;;;;;5071635;28;20433;-55
2023/04/12 00:11:35;;;;;;;3.60;2.47;;;;;;;;;;5071497;28;20453;-56
2023/04/12 00:14:01;;;;;;;3.93;2.50;;;;;;;;;;5071692;28;20990;-55
2023/04/12 00:16:27;;;;;;;4.67;2.50;;;;;;;;;;5071671;28;20522;-56
2023/04/12 00:18:54;;;;;;;4.20;2.93;;;;;;;;;;5071597;28;20545;-56
2023/04/12 00:21:22;;;;;;;7.00;2.80;;;;;;;;;;5071558;28;20199;-55
2023/04/12 00:23:48;;;;;;;4.43;2.40;;;;;;;;;;5071416;28;20931;-55
2023/04/12 00:26:15;;;;;;;5.17;2.50;;;;;;;;;;5071550;28;20473;-55
2023/04/12 00:28:42;;;;;;;4.33;2.60;;;;;;;;;;5071394;28;20453;-56
2023/04/12 00:31:08;;;;;;;4.27;2.43;;;;;;;;;;5071473;28;20434;-56
2023/04/12 00:33:34;;;;;;;3.73;2.20;;;;;;;;;;5071093;28;20600;-55
2023/04/12 00:36:00;;;;;;;4.60;2.20;;;;;;;;;;5071494;28;20749;-55
2023/04/12 00:38:26;;;;;;;4.27;2.27;;;;;;;;;;5071414;28;20450;-55
2023/04/12 00:40:52;;;;;;;5.80;2.50;;;;;;;;;;5071110;28;20469;-55
2023/04/12 00:43:19;;;;;;;5.00;2.20;;;;;;;;;;5071376;28;20487;-56
2023/04/12 00:45:46;;;;;;;3.17;2.10;;;;;;;;;;5071299;28;20591;-55
2023/04/12 00:48:12;;;;;;;4.67;2.63;;;;;;;;;;5071402;28;20438;-55
2023/04/12 00:50:40;;;;;;;4.40;2.27;;;;;;;;;;5071174;28;21117;-55
2023/04/12 00:53:08;;;;;;;4.33;2.27;;;;;;;;;;5071155;28;21003;-55
2023/04/12 00:55:35;;;;;;;5.03;1.93;;;;;;;;;;5071132;28;20430;-56
2023/04/12 00:58:02;;;;;;;5.70;2.20;;;;;;;;;;5071384;28;20475;-55
2023/04/12 01:00:29;;;;;;;3.40;2.20;;;;;;;;;;5072123;28;20841;-55
2023/04/12 01:02:55;;;;;;;4.23;2.20;;;;;;;;;;5075138;28;20506;-55
2023/04/12 01:05:22;;;;;;;4.63;2.30;;;;;;;;;;5075247;28;20799;-55
2023/04/12 01:07:52;;;;;;;5.47;2.27;;;;;;;;;;5074889;28;20437;-55
2023/04/12 01:10:23;;;;;;;4.47;2.30;;;;;;;;;;5075013;28;20425;-55
2023/04/12 01:12:52;;;;;;;5.07;2.00;;;;;;;;;;5074800;28;20444;-55
2023/04/12 01:15:18;;;;;;;3.77;1.90;;;;;;;;;;5074916;28;20430;-55
2023/04/12 01:17:49;;;;;;;5.43;2.43;;;;;;;;;;5074926;28;20429;-55
2023/04/12 01:20:17;;;;;;;2.00;1.77;;;;;;;;;;5075052;28;20438;-57
2023/04/12 01:23:06;;;;;;;4.67;2.30;;;;;;;;;;5074917;28;20465;-55
2023/04/12 01:25:38;;;;;;;3.63;2.10;;;;;;;;;;5074700;28;20837;-55
2023/04/12 01:28:06;;;;;;;4.53;2.17;;;;;;;;;;5074744;28;20439;-55
2023/04/12 01:30:33;;;;;;;5.63;2.40;;;;;;;;;;5074690;28;20491;-55
2023/04/12 01:33:01;;;;;;;4.13;2.30;;;;;;;;;;5074652;28;20477;-55
2023/04/12 01:35:28;;;;;;;4.60;2.37;;;;;;;;;;5074694;28;20448;-55
2023/04/12 01:37:54;;;;;;;3.87;2.30;;;;;;;;;;5074761;28;20426;-57
2023/04/12 01:40:20;;;;;;;4.23;2.00;;;;;;;;;;5074472;28;20434;-55
2023/04/12 01:42:46;;;;;;;4.90;2.40;;;;;;;;;;5074348;28;20433;-55
2023/04/12 01:45:14;;;;;;;5.57;2.57;;;;;;;;;;5074317;28;20515;-54
2023/04/12 01:47:40;;;;;;;5.90;2.60;;;;;;;;;;5074242;28;20282;-56
2023/04/12 01:50:11;;;;;;;5.70;2.50;;;;;;;;;;5074353;28;20721;-56
2023/04/12 01:52:41;;;;;;;3.53;2.00;;;;;;;;;;5073964;28;20274;-55
2023/04/12 01:55:09;;;;;;;6.67;2.47;;;;;;;;;;5074120;28;20930;-55
2023/04/12 01:57:37;;;;;;;4.73;2.50;;;;;;;;;;5073970;28;20457;-55
2023/04/12 02:00:06;;;;;;;6.60;2.67;;;;;;;;;;5074120;28;20440;-55
2023/04/12 02:02:35;;;;;;;6.53;2.60;;;;;;;;;;5074018;28;20525;-55
2023/04/12 02:05:01;;;;;;;5.20;2.10;;;;;;;;;;5073995;28;20449;-55
2023/04/12 02:07:28;;;;;;;5.57;2.77;;;;;;;;;;5073996;28;20854;-55
2023/04/12 02:09:54;;;;;;;4.37;2.50;;;;;;;;;;5073875;28;20454;-55
2023/04/12 02:12:21;;;;;;;6.00;2.60;;;;;;;;;;5072984;28;20499;-55
2023/04/12 02:14:50;;;;;;;8.60;2.80;;;;;;;;;;5073764;28;20226;-55
2023/04/12 02:17:16;;;;;;;6.83;2.30;;;;;;;;;;5073901;28;20430;-55
2023/04/12 02:19:44;;;;;;;5.83;2.60;;;;;;;;;;5073683;28;20920;-55
2023/04/12 02:22:10;;;;;;;7.07;2.57;;;;;;;;;;5073779;28;20525;-55
2023/04/12 02:24:36;;;;;;;6.87;2.40;;;;;;;;;;5073590;28;20487;-55
2023/04/12 02:27:02;;;;;;;3.63;2.10;;;;;;;;;;5073478;28;20814;-55
2023/04/12 02:29:28;;;;;;;7.63;2.50;;;;;;;;;;5073675;28;20433;-55
2023/04/12 02:31:54;;;;;;;4.70;2.50;;;;;;;;;;5073219;28;20560;-56
2023/04/12 02:34:21;;;;;;;5.10;2.50;;;;;;;;;;5073575;28;20204;-58
2023/04/12 02:36:48;;;;;;;6.37;2.67;;;;;;;;;;5073421;28;20429;-54
2023/04/12 02:39:17;;;;;;;4.00;2.20;;;;;;;;;;5073739;28;20437;-57
2023/04/12 02:41:43;;;;;;;6.57;2.83;;;;;;;;;;5073342;28;20457;-57
2023/04/12 02:44:09;;;;;;;5.27;2.67;;;;;;;;;;5073358;28;20429;-55
2023/04/12 02:46:35;;;;;;;5.07;2.70;;;;;;;;;;5073094;28;20486;-55
2023/04/12 02:49:01;;;;;;;4.87;2.60;;;;;;;;;;5072131;28;20445;-56
2023/04/12 02:51:27;;;;;;;5.87;2.60;;;;;;;;;;5073285;28;20450;-55
2023/04/12 02:53:55;;;;;;;3.53;2.33;;;;;;;;;;5073103;28;20199;-55
2023/04/12 02:56:21;;;;;;;6.33;2.70;;;;;;;;;;5072966;28;20230;-55
2023/04/12 02:58:47;;;;;;;6.13;2.70;;;;;;;;;;5073058;28;20929;-55
2023/04/12 03:01:13;;;;;;;5.93;2.70;;;;;;;;;;5073152;28;20483;-55
2023/04/12 03:03:39;;;;;;;6.30;2.90;;;;;;;;;;5072851;28;20434;-56
2023/04/12 03:06:08;;;;;;;5.07;2.50;;;;;;;;;;5072692;28;21071;-56
2023/04/12 03:08:35;;;;;;;5.67;2.83;;;;;;;;;;5072752;28;20810;-56
2023/04/12 03:11:02;;;;;;;6.40;2.50;;;;;;;;;;5072933;28;20445;-56
2023/04/12 03:13:28;;;;;;;6.23;2.63;;;;;;;;;;5072912;28;20426;-55
2023/04/12 03:15:55;;;;;;;6.97;2.60;;;;;;;;;;5072524;28;20962;-55
2023/04/12 03:18:22;;;;;;;4.13;2.43;;;;;;;;;;5072641;28;20223;-55
2023/04/12 03:20:48;;;;;;;8.40;2.80;;;;;;;;;;5072382;28;20452;-56
2023/04/12 03:23:14;;;;;;;5.03;2.93;;;;;;;;;;5072720;28;20947;-55
2023/04/12 03:25:41;;;;;;;4.23;2.50;;;;;;;;;;5071347;28;20464;-55
2023/04/12 03:28:08;;;;;;;5.77;2.57;;;;;;;;;;5072319;28;20923;-55
2023/04/12 03:30:34;;;;;;;6.17;2.70;;;;;;;;;;5072231;28;20434;-56
2023/04/12 03:33:00;;;;;;;3.43;2.43;;;;;;;;;;5072265;28;20491;-55
2023/04/12 03:35:26;;;;;;;4.33;2.60;;;;;;;;;;5072372;28;20207;-55
2023/04/12 03:37:52;;;;;;;3.57;2.67;;;;;;;;;;5072088;28;20667;-55
2023/04/12 03:40:18;;;;;;;5.43;2.80;;;;;;;;;;5072034;28;20290;-55
2023/04/12 03:42:44;;;;;;;5.67;2.67;;;;;;;;;;5072220;28;20195;-55
2023/04/12 03:45:12;;;;;;;6.20;2.57;;;;;;;;;;5072081;28;20491;-55
2023/04/12 03:47:38;;;;;;;4.07;2.43;;;;;;;;;;5071868;28;20772;-56
2023/04/12 03:50:05;;;;;;;7.97;2.73;;;;;;;;;;5072016;28;20446;-56
2023/04/12 03:52:31;;;;;;;5.90;2.63;;;;;;;;;;5072060;28;20430;-55
2023/04/12 03:54:57;;;;;;;5.73;2.37;;;;;;;;;;5071875;28;20444;-56
2023/04/12 03:57:23;;;;;;;4.73;2.77;;;;;;;;;;5071691;28;20450;-55
2023/04/12 03:59:50;;;;;;;5.60;2.50;;;;;;;;;;5071761;28;20195;-56
2023/04/12 04:02:18;;;;;;;2.93;2.33;;;;;;;;;;5071916;28;20224;-55
2023/04/12 04:04:44;;;;;;;5.53;2.83;;;;;;;;;;5072072;28;20461;-56
2023/04/12 04:07:10;;;;;;;5.00;2.73;;;;;;;;;;5071638;28;20470;-55
2023/04/12 04:09:36;;;;;;;10.70;2.90;;;;;;;;;;5071648;28;20430;-55
2023/04/12 04:12:03;;;;;;;3.33;2.23;;;;;;;;;;5071634;28;20432;-56
2023/04/12 04:14:29;;;;;;;5.60;2.80;;;;;;;;;;5071983;28;20491;-55
2023/04/12 04:16:55;;;;;;;3.30;2.27;;;;;;;;;;5071474;28;20437;-55
2023/04/12 04:19:22;;;;;;;4.97;2.67;;;;;;;;;;5071691;28;20430;-55
2023/04/12 04:21:48;;;;;;;5.23;2.40;;;;;;;;;;5071411;28;20441;-55
2023/04/12 04:24:17;;;;;;;7.40;2.63;;;;;;;;;;5071771;28;20434;-56
2023/04/12 04:26:44;;;;;;;5.40;2.70;;;;;;;;;;5071324;28;21044;-56
2023/04/12 04:29:10;;;;;;;4.27;2.50;;;;;;;;;;5071396;28;20935;-56
2023/04/12 04:31:36;;;;;;;3.77;2.50;;;;;;;;;;5071180;28;20529;-56
2023/04/12 04:34:04;;;;;;;5.97;2.60;;;;;;;;;;5071607;28;20763;-55
2023/04/12 04:36:32;;;;;;;8.93;2.70;;;;;;;;;;5071263;28;20540;-55
2023/04/12 04:38:58;;;;;;;6.77;2.70;;;;;;;;;;5071749;28;20533;-55
2023/04/12 04:41:24;;;;;;;6.27;2.67;;;;;;;;;;5071267;28;20522;-56
2023/04/12 04:43:50;;;;;;;7.27;2.93;;;;;;;;;;5071281;28;20476;-56
2023/04/12 04:46:19;;;;;;;5.63;2.53;;;;;;;;;;5071390;28;20470;-55
2023/04/12 04:48:46;;;;;;;4.70;1.90;;;;;;;;;;5071261;28;20431;-55
2023/04/12 04:51:13;;;;;;;2.93;2.30;;;;;;;;;;5071396;28;20472;-55
2023/04/12 04:53:41;;;;;;;3.30;2.20;;;;;;;;;;5070770;28;20430;-55
2023/04/12 04:56:07;;;;;;;4.17;2.13;;;;;;;;;;5071041;28;20456;-55
2023/04/12 04:58:33;;;;;;;3.77;2.57;;;;;;;;;;5071237;28;20795;-55
2023/04/12 05:00:59;;;;;;;3.97;2.73;;;;;;;;;;5071446;28;20438;-56
2023/04/12 05:03:27;;;;;;;7.23;2.47;;;;;;;;;;5071082;28;20210;-56
2023/04/12 05:05:53;;;;;;;4.43;2.20;;;;;;;;;;5070868;28;20474;-56
2023/04/12 05:08:19;;;;;;;6.70;2.57;;;;;;;;;;5071064;28;20484;-55
2023/04/12 05:10:50;;;;;;;4.80;2.20;;;;;;;;;;5070897;28;20195;-56
2023/04/12 05:13:16;;;;;;;4.43;2.43;;;;;;;;;;5071129;28;20865;-56
2023/04/12 05:15:42;;;;;;;4.07;2.37;;;;;;;;;;5071016;28;20469;-56
2023/04/12 05:18:08;;;;;;;5.60;2.60;;;;;;;;;;5070519;28;20498;-56
2023/04/12 05:20:33;;;;;;;4.37;2.47;;;;;;;;;;5070580;28;20196;-56
2023/04/12 05:23:00;;;;;;;5.30;2.43;;;;;;;;;;5071102;28;20561;-55
2023/04/12 05:25:26;;;;;;;2.57;2.03;;;;;;;;;;5070757;28;20207;-55
2023/04/12 05:27:53;;;;;;;5.33;2.10;;;;;;;;;;5070862;28;20533;-56
2023/04/12 05:30:19;;;;;;;4.43;2.40;;;;;;;;;;5070742;28;20215;-56
2023/04/12 05:32:45;;;;;;;3.27;2.47;;;;;;;;;;5070752;28;20836;-56
2023/04/12 05:35:11;;;;;;;3.40;2.40;;;;;;;;;;5070902;28;20449;-56
2023/04/12 05:37:37;;;;;;;4.67;2.40;;;;;;;;;;5070674;28;20227;-55
2023/04/12 05:40:08;;;;;;;4.53;2.53;;;;;;;;;;5070496;28;20203;-57
2023/04/12 05:42:35;;;;;;;5.00;2.60;;;;;;;;;;5070780;28;20497;-57
2023/04/12 05:45:03;;;;;;;5.50;2.63;;;;;;;;;;5070620;28;20457;-56
2023/04/12 05:47:29;;;;;;;6.17;2.20;;;;;;;;;;5071477;28;20478;-56
2023/04/12 05:49:55;;;;;;;4.23;2.33;;;;;;;;;;5074142;28;20430;-56
2023/04/12 05:52:21;;;;;;;3.43;2.20;;;;;;;;;;5074264;28;20448;-56
2023/04/12 05:54:47;;;;;;;9.33;2.60;;;;;;;;;;5074245;28;20199;-56
2023/04/12 05:57:14;;;;;;;4.00;1.90;;;;;;;;;;5074326;28;20230;-57
2023/04/12 05:59:40;;;;;;;4.37;2.30;;;;;;;;;;5074139;28;20494;-56
2023/04/12 06:02:08;;;;;;;3.93;2.03;;;;;;;;;;5074078;28;20441;-56
2023/04/12 06:04:34;;;;;;;4.47;2.17;;;;;;;;;;5074018;28;20217;-56
2023/04/12 06:07:00;;;;;;;6.50;2.10;;;;;;;;;;5073993;28;20882;-56
2023/04/12 06:09:26;;;;;;;5.77;2.77;;;;;;;;;;5073995;28;20533;-56
2023/04/12 06:11:52;;;;;;;5.43;2.63;;;;;;;;;;5073737;28;20213;-56
2023/04/12 06:14:18;;;;;;;7.37;2.63;;;;;;;;;;5073847;28;20187;-56
2023/04/12 06:16:44;;;;;;;3.17;2.10;;;;;;;;;;5074189;28;20188;-56
2023/04/12 06:19:12;;;;;;;6.70;2.57;;;;;;;;;;5073855;28;20563;-56
2023/04/12 06:21:38;;;;;;;3.83;2.07;;;;;;;;;;5073526;28;20430;-55
2023/04/12 06:24:04;;;;;;;5.73;2.27;;;;;;;;;;5073782;28;20433;-56
2023/04/12 06:26:30;;;;;;;4.57;2.30;;;;;;;;;;5073723;28;20474;-56
2023/04/12 06:28:56;;;;;;;6.37;2.63;;;;;;;;;;5073560;28;20442;-56
2023/04/12 06:31:22;;;;;;;4.80;1.83;;;;;;;;;;5073593;28;20245;-56
2023/04/12 06:33:49;;;;;;;4.23;2.13;;;;;;;;;;5073483;28;20249;-56
2023/04/12 06:36:16;;;;;;;3.57;2.33;;;;;;;;;;5073604;28;20245;-56
2023/04/12 06:38:42;;;;;;;9.43;2.50;;;;;;;;;;5073438;28;20438;-56
2023/04/12 06:41:08;;;;;;;5.50;1.90;;;;;;;;;;5073312;28;21023;-56
2023/04/12 06:43:34;;;;;;;5.53;2.20;;;;;;;;;;5073405;28;20528;-56
2023/04/12 06:46:03;;;;;;;7.20;2.20;;;;;;;;;;5073323;28;20270;-56
2023/04/12 06:48:29;;;;;;;3.43;1.80;;;;;;;;;;5073414;28;20219;-56
2023/04/12 06:50:55;;;;;;;3.57;2.07;;;;;;;;;;5073078;28;20441;-54
2023/04/12 06:53:23;;;;;;;4.30;2.27;;;;;;;;;;5073122;28;20869;-56
2023/04/12 06:55:49;;;;;;;4.07;2.00;;;;;;;;;;5072814;28;20717;-54
2023/04/12 06:58:15;;;;;;;4.07;2.20;;;;;;;;;;5073198;28;20332;-56
2023/04/12 07:00:41;;;;;;;5.60;1.80;;;;;;;;;;5072908;28;20310;-56
2023/04/12 07:03:08;;;;;;;3.87;1.93;;;;;;;;;;5072950;28;20207;-55
2023/04/12 07:05:37;;;;;;;5.93;2.30;;;;;;;;;;5072640;28;20226;-55
2023/04/12 07:08:02;;;;;;;5.07;2.20;;;;;;;;;;5072714;28;20679;-55
2023/04/12 07:10:30;;;;;;;5.93;1.87;;;;;;;;;;5072879;28;20210;-55
2023/04/12 07:12:58;;;;;;;5.53;2.33;;;;;;;;;;5072687;28;20299;-56
2023/04/12 07:15:24;;;;;;;5.50;2.20;;;;;;;;;;5072590;28;20257;-56
2023/04/12 07:17:50;;;;;;;3.20;1.67;;;;;;;;;;5072472;28;20734;-54
2023/04/12 07:20:16;;;;;;;3.97;2.00;;;;;;;;;;5072738;28;20203;-55
2023/04/12 07:22:42;;;;;;;5.27;2.20;;;;;;;;;;5072596;28;20223;-55
2023/04/12 07:25:09;;;;;;;5.17;1.97;;;;;;;;;;5072366;28;20231;-55
2023/04/12 07:27:37;;;;;;;3.30;1.90;;;;;;;;;;5072361;28;20231;-55
2023/04/12 07:30:03;;;;;;;3.40;2.03;;;;;;;;;;5072445;28;20283;-55
2023/04/12 07:32:29;;;;;;;3.63;2.00;;;;;;;;;;5072453;28;20231;-56
2023/04/12 07:34:55;;;;;;;4.73;1.80;;;;;;;;;;5072252;28;20570;-55
2023/04/12 07:37:21;;;;;;;4.40;1.90;;;;;;;;;;5072313;28;20282;-56
2023/04/12 07:39:47;;;;;;;3.93;1.80;;;;;;;;;;5072160;28;20253;-55
2023/04/12 07:42:13;;;;;;;5.57;1.80;;;;;;;;;;5072405;28;20682;-55
2023/04/12 07:44:40;;;;;;;5.07;2.20;;;;;;;;;;5072087;28;20199;-55
2023/04/12 07:47:06;;;;;;;3.53;1.67;;;;;;;;;;5071869;28;20235;-55
2023/04/12 07:49:32;;;;;;;5.63;2.03;;;;;;;;;;5072108;28;20203;-56
2023/04/12 07:51:58;;;;;;;5.83;1.80;;;;;;;;;;5072090;28;20761;-56
2023/04/12 07:54:26;;;;;;;3.70;1.70;;;;;;;;;;5071768;28;20269;-56
2023/04/12 07:56:58;;;;;;;3.93;1.90;;;;;;;;;;5071792;28;20208;-56
2023/04/12 07:59:24;;;;;;;5.40;2.13;;;;;;;;;;5071972;28;20256;-55
2023/04/12 08:01:51;;;;;;;3.97;1.87;;;;;;;;;;5071654;28;20199;-56
2023/04/12 08:04:17;;;;;;;4.07;1.70;;;;;;;;;;5071873;28;20211;-55
2023/04/12 08:06:43;;;;;;;3.97;2.00;;;;;;;;;;5071698;28;20231;-57
2023/04/12 08:09:09;;;;;;;4.60;1.60;;;;;;;;;;5071622;28;20234;-55
2023/04/12 08:11:35;;;;;;;3.20;2.00;;;;;;;;;;5071199;28;20203;-56
2023/04/12 08:14:01;;;;;;;5.57;2.00;;;;;;;;;;5071567;28;20253;-56
2023/04/12 08:16:27;;;;;;;2.90;1.73;;;;;;;;;;5071958;28;20223;-56
2023/04/12 08:18:55;;;;;;;3.73;2.00;;;;;;;;;;5071456;28;20551;-56
2023/04/12 08:21:22;;;;;;;3.83;1.83;;;;;;;;;;5071547;28;20200;-55
2023/04/12 08:23:49;;;;;;;3.50;1.87;;;;;;;;;;5071424;28;20234;-55
2023/04/12 08:26:15;;;;;;;3.13;1.93;;;;;;;;;;5071525;28;20227;-55
2023/04/12 08:28:42;;;;;;;4.47;1.70;;;;;;;;;;5071424;28;20559;-55
2023/04/12 08:31:08;;;;;;;2.97;1.63;;;;;;;;;;5071522;28;20226;-55
2023/04/12 08:33:34;;;;;;;3.60;2.00;;;;;;;;;;5071225;28;20300;-56
2023/04/12 08:36:01;;;;;;;3.40;1.87;;;;;;;;;;5071483;28;20195;-55
2023/04/12 08:38:27;;;;;;;4.63;2.33;;;;;;;;;;5071486;28;20555;-56
2023/04/12 08:40:53;;;;;;;2.47;1.70;;;;;;;;;;5071207;28;20218;-56
2023/04/12 08:43:21;;;;;;;3.07;1.70;;;;;;;;;;5071352;28;20203;-56
2023/04/12 08:45:48;;;;;;;3.37;1.67;;;;;;;;;;5071163;28;20260;-55
2023/04/12 08:48:15;;;;;;;2.83;1.90;;;;;;;;;;5071561;28;20195;-56
2023/04/12 08:50:42;;;;;;;3.00;2.07;;;;;;;;;;5071265;28;20200;-57
2023/04/12 08:53:10;;;;;;;3.10;1.70;;;;;;;;;;5071141;28;20218;-56
2023/04/12 08:55:36;;;;;;;4.87;2.00;;;;;;;;;;5071009;28;20196;-56
2023/04/12 08:58:06;;;;;;;4.93;2.13;;;;;;;;;;5070999;28;20196;-56
2023/04/12 09:00:32;;;;;;;5.60;2.30;;;;;;;;;;5071227;28;20200;-56
2023/04/12 09:02:59;;;;;;;4.50;2.13;;;;;;;;;;5071176;28;20239;-57
2023/04/12 09:05:29;;;;;;;3.30;2.13;;;;;;;;;;5071134;28;20196;-56
2023/04/12 09:07:55;;;;;;;4.97;2.43;;;;;;;;;;5070918;28;20220;-56
2023/04/12 09:10:31;;;;;;;2.83;1.90;;;;;;;;;;5071077;28;20203;-55
2023/04/12 09:12:57;;;;;;;3.57;1.90;;;;;;;;;;5071044;28;20206;-55
2023/04/12 09:15:23;;;;;;;3.33;2.20;;;;;;;;;;5071005;28;20200;-55
2023/04/12 09:18:01;;;;;;;5.27;2.37;;;;;;;;;;5070828;28;20604;-56
2023/04/12 09:20:27;;;;;;;3.53;1.90;;;;;;;;;;5071123;28;20198;-56
2023/04/12 09:22:54;;;;;;;4.07;2.00;;;;;;;;;;5072183;28;20203;-55
2023/04/12 09:25:35;;;;;;;2.80;1.80;;;;;;;;;;5074732;28;20206;-55
2023/04/12 09:28:01;;;;;;;5.53;1.90;;;;;;;;;;5074630;28;20223;-55
2023/04/12 09:30:27;;;;;;;3.83;2.10;;;;;;;;;;5074855;28;20204;-55
2023/04/12 09:32:54;;;;;;;6.33;1.87;;;;;;;;;;5074286;28;20687;-56
2023/04/12 09:35:33;;;;;;;3.87;2.00;;;;;;;;;;5074552;28;20214;-56
2023/04/12 09:38:06;;;;;;;3.73;1.80;;;;;;;;;;5074576;28;20195;-56
2023/04/12 09:40:35;;;;;;;4.67;2.07;;;;;;;;;;5074480;28;20744;-56
2023/04/12 09:43:02;;;;;;;4.37;1.90;;;;;;;;;;5074480;28;20199;-56
2023/04/12 09:45:30;;;;;;;3.37;2.07;;;;;;;;;;5074588;28;20226;-54
2023/04/12 09:47:56;;;;;;;2.43;1.70;;;;;;;;;;5074176;28;20234;-55
2023/04/12 09:50:23;;;;;;;3.77;1.80;;;;;;;;;;5074293;28;20302;-55
2023/04/12 09:52:49;;;;;;;2.33;1.70;;;;;;;;;;5074392;28;20195;-55
2023/04/12 09:55:15;;;;;;;2.47;1.70;;;;;;;;;;5074438;28;20636;-56
2023/04/12 09:57:43;;;;;;;3.03;2.03;;;;;;;;;;5074125;28;20576;-56
2023/04/12 10:00:12;;;;;;;1.80;1.60;;;;;;;;;;5074132;28;20211;-56
2023/04/12 10:02:40;;;;;;;1.87;1.57;;;;;;;;;;5073976;28;20218;-57
2023/04/12 10:05:06;;;;;;;4.67;1.90;;;;;;;;;;5074087;28;20466;-56
2023/04/12 10:07:34;;;;;;;2.97;2.10;;;;;;;;;;5074051;28;20231;-56
2023/04/12 10:10:02;;;;;;;6.77;4.03;;;;;;;;;;5073935;28;20252;-56
2023/04/12 10:12:29;;;;;;;2.10;1.87;;;;;;;;;;5074064;28;20230;-56
2023/04/12 10:14:56;;;;;;;4.53;2.00;;;;;;;;;;5073896;28;20191;-56
2023/04/12 10:17:25;;;;;;;3.23;2.20;;;;;;;;;;5073876;28;20196;-56
2023/04/12 10:19:51;;;;;;;3.40;1.90;;;;;;;;;;5073708;28;20200;-56
2023/04/12 10:22:18;;;;;;;2.53;1.93;;;;;;;;;;5073734;28;20642;-56
2023/04/12 10:24:44;;;;;;;4.63;2.40;;;;;;;;;;5073730;28;20665;-57
2023/04/12 10:27:12;;;;;;;3.77;2.10;;;;;;;;;;5073654;28;20265;-56
2023/04/12 10:29:39;;;;;;;4.53;2.27;;;;;;;;;;5073580;28;20466;-56
2023/04/12 10:32:23;;;;;;;2.13;1.93;;;;;;;;;;5073249;28;20235;-56
2023/04/12 10:34:55;;;;;;;4.03;1.97;;;;;;;;;;5072919;28;20609;-57
2023/04/12 10:37:21;;;;;;;4.17;2.17;;;;;;;;;;5073472;28;20432;-56
2023/04/12 10:39:51;;;;;;;5.23;2.20;;;;;;;;;;5073381;28;20195;-57
2023/04/12 10:42:18;;;;;;;3.50;2.07;;;;;;;;;;5073460;28;20223;-56
2023/04/12 10:44:44;;;;;;;2.47;2.23;;;;;;;;;;5073414;28;20779;-56
2023/04/12 10:47:11;;;;;;;4.97;2.33;;;;;;;;;;5073134;28;20231;-57
2023/04/12 10:49:38;;;;;;;4.27;2.10;;;;;;;;;;5073279;28;20218;-58
2023/04/12 10:52:14;;;;;;;3.30;1.90;;;;;;;;;;5073124;28;20207;-56
2023/04/12 10:54:40;;;;;;;3.13;2.23;;;;;;;;;;5072648;28;20249;-57
2023/04/12 10:57:07;;;;;;;4.63;2.47;;;;;;;;;;5072916;28;20208;-58
2023/04/12 10:59:58;;;;;;;2.90;2.30;;;;;;;;;;5072990;28;20736;-58
2023/04/12 11:02:24;;;;;;;3.13;2.20;;;;;;;;;;5058167;28;20207;-57
2023/04/12 11:05:04;;;;;;;4.57;2.20;;;;;;;;;;5072761;28;20227;-56
2023/04/12 11:07:40;;;;;;;5.77;2.10;;;;;;;;;;5073004;28;20230;-57
2023/04/12 11:10:13;;;;;;;3.37;2.33;;;;;;;;;;5072794;28;20294;-56
2023/04/12 11:12:40;;;;;;;4.80;2.70;;;;;;;;;;5072908;28;20202;-56
2023/04/12 11:15:06;;;;;;;4.00;2.53;;;;;;;;;;5072721;28;20230;-57
2023/04/12 11:17:32;;;;;;;2.73;2.27;;;;;;;;;;5072807;28;20563;-57
2023/04/12 11:19:59;;;;;;;4.50;2.10;;;;;;;;;;5072882;28;20737;-57
2023/04/12 11:22:26;;;;;;;3.20;2.30;;;;;;;;;;5072627;28;20202;-58
2023/04/12 11:24:54;;;;;;;4.93;2.43;;;;;;;;;;5072342;28;20196;-57
2023/04/12 11:27:21;;;;;;;4.43;2.30;;;;;;;;;;5072236;28;20693;-56
2023/04/12 11:29:48;;;;;;;2.20;2.00;;;;;;;;;;5072207;28;20350;-56
2023/04/12 11:32:14;;;;;;;3.57;2.40;;;;;;;;;;5072436;28;20235;-56
2023/04/12 11:34:41;;;;;;;2.43;2.00;;;;;;;;;;5072147;28;20223;-57
2023/04/12 11:37:07;;;;;;;2.40;2.20;;;;;;;;;;5072189;28;20226;-57
2023/04/12 11:39:34;;;;;;;3.23;2.37;;;;;;;;;;5072181;28;20282;-57
2023/04/12 11:42:02;;;;;;;2.37;2.17;;;;;;;;;;5072123;28;20199;-57
2023/04/12 11:44:29;;;;;;;2.47;2.23;;;;;;;;;;5071915;28;20207;-56
2023/04/12 11:46:55;;;;;;;4.27;2.47;;;;;;;;;;5071425;28;20229;-56
2023/04/12 11:49:22;;;;;;;2.83;2.27;;;;;;;;;;5072078;28;20195;-56
2023/04/12 11:51:48;;;;;;;3.03;2.10;;;;;;;;;;5071980;28;20195;-56
2023/04/12 11:54:14;;;;;;;2.27;2.03;;;;;;;;;;5072169;28;20701;-57
2023/04/12 11:56:41;;;;;;;2.20;1.90;;;;;;;;;;5071491;28;20242;-56
2023/04/12 11:59:08;;;;;;;3.30;2.10;;;;;;;;;;5071847;28;20195;-56
2023/04/12 12:01:34;;;;;;;3.10;2.00;;;;;;;;;;5071905;28;20206;-56
2023/04/12 12:04:01;;;;;;;2.40;2.07;;;;;;;;;;5071909;28;20241;-56
2023/04/12 12:06:27;;;;;;;2.83;2.30;;;;;;;;;;5071735;28;20219;-56
2023/04/12 12:08:53;;;;;;;3.60;2.20;;;;;;;;;;5071646;28;20438;-57
2023/04/12 12:11:20;;;;;;;2.47;2.20;;;;;;;;;;5071588;28;20825;-57
2023/04/12 12:13:47;;;;;;;2.03;1.80;;;;;;;;;;5071605;28;20199;-57
2023/04/12 12:16:15;;;;;;;2.20;1.93;;;;;;;;;;5071622;28;20708;-56
2023/04/12 12:18:41;;;;;;;2.40;2.20;;;;;;;;;;5071349;28;20257;-57
2023/04/12 12:21:08;;;;;;;2.23;1.90;;;;;;;;;;5071523;28;20279;-56
2023/04/12 12:23:34;;;;;;;2.97;2.30;;;;;;;;;;5071520;28;20191;-56
2023/04/12 12:26:04;;;;;;;1.87;1.77;;;;;;;;;;5071361;28;20226;-56
2023/04/12 12:28:30;;;;;;;2.07;1.83;;;;;;;;;;5071666;28;20270;-56
2023/04/12 12:30:56;;;;;;;2.13;1.93;;;;;;;;;;5071355;28;20241;-56
2023/04/12 12:33:24;;;;;;;4.70;2.23;;;;;;;;;;5071155;28;20239;-56
2023/04/12 12:35:55;;;;;;;2.43;2.10;;;;;;;;;;5071271;28;20206;-56
2023/04/12 12:38:24;;;;;;;2.10;1.90;;;;;;;;;;5071367;28;20332;-56
2023/04/12 12:40:50;;;;;;;3.30;2.27;;;;;;;;;;5071148;28;20183;-56
2023/04/12 12:43:18;;;;;;;2.73;2.30;;;;;;;;;;5071520;28;20196;-56
2023/04/12 12:45:44;;;;;;;3.60;2.10;;;;;;;;;;5071339;28;20199;-56
2023/04/12 12:48:10;;;;;;;2.57;2.30;;;;;;;;;;5071040;28;20222;-56
2023/04/12 12:50:38;;;;;;;2.10;1.90;;;;;;;;;;5071283;28;20277;-56
2023/04/12 12:53:07;;;;;;;2.17;1.97;;;;;;;;;;5070855;28;20290;-56
2023/04/12 12:55:33;;;;;;;4.80;3.33;;;;;;;;;;5070972;28;20196;-56
2023/04/12 12:57:59;;;;;;;2.87;2.20;;;;;;;;;;5074529;28;20191;-57
2023/04/12 13:00:26;;;;;;;2.20;2.00;;;;;;;;;;5075281;28;20615;-56
2023/04/12 13:02:53;;;;;;;2.00;1.80;;;;;;;;;;5075030;28;20226;-56
2023/04/12 13:05:19;;;;;;;3.17;2.00;;;;;;;;;;5075322;28;20195;-56
2023/04/12 13:07:47;;;;;;;4.93;1.80;;;;;;;;;;5075179;28;20223;-56
2023/04/12 13:10:13;;;;;;;2.30;2.10;;;;;;;;;;5075317;28;20615;-56
2023/04/12 13:12:39;;;;;;;3.40;2.30;;;;;;;;;;5075030;28;20680;-56
2023/04/12 13:15:06;;;;;;;4.07;2.40;;;;;;;;;;5074771;28;20674;-56
2023/04/12 13:17:32;;;;;;;2.87;2.20;;;;;;;;;;5074892;28;20240;-56
2023/04/12 13:19:58;;;;;;;2.30;2.10;;;;;;;;;;5074928;28;20222;-56
2023/04/12 13:22:26;;;;;;;1.93;1.83;;;;;;;;;;5075028;28;20192;-56
2023/04/12 13:24:54;;;;;;;2.60;2.00;;;;;;;;;;5074645;28;20693;-57
2023/04/12 13:27:20;;;;;;;2.93;2.30;;;;;;;;;;5074671;28;20238;-56
2023/04/12 13:29:46;;;;;;;2.93;2.20;;;;;;;;;;5074856;28;20545;-56
2023/04/12 13:32:13;;;;;;;3.10;2.17;;;;;;;;;;5074613;28;20335;-56
2023/04/12 13:34:39;;;;;;;2.83;1.80;;;;;;;;;;5074645;28;20199;-56
2023/04/12 13:37:05;;;;;;;2.30;2.10;;;;;;;;;;5074376;28;20237;-56
2023/04/12 13:39:31;;;;;;;2.03;1.80;;;;;;;;;;5074641;28;20617;-59
2023/04/12 13:41:58;;;;;;;1.77;1.67;;;;;;;;;;5074535;28;20657;-56
2023/04/12 13:44:26;;;;;;;2.00;1.80;;;;;;;;;;5074451;28;20200;-57
2023/04/12 13:46:52;;;;;;;3.57;2.00;;;;;;;;;;5074391;28;20227;-56
2023/04/12 13:49:18;;;;;;;2.07;1.80;;;;;;;;;;5074468;28;20252;-57
2023/04/12 13:51:44;;;;;;;2.00;1.90;;;;;;;;;;5074388;28;20199;-56
2023/04/12 13:54:10;;;;;;;1.90;1.80;;;;;;;;;;5074102;28;20200;-56
2023/04/12 13:56:36;;;;;;;2.30;2.00;;;;;;;;;;5074144;28;20294;-56
2023/04/12 13:59:03;;;;;;;2.03;1.83;;;;;;;;;;5074404;28;20196;-56
2023/04/12 14:01:29;;;;;;;3.10;1.87;;;;;;;;;;5074422;28;20231;-56
2023/04/12 14:03:55;;;;;;;2.00;1.90;;;;;;;;;;5073971;28;20195;-56
2023/04/12 14:06:21;;;;;;;2.43;2.23;;;;;;;;;;5074125;28;20207;-56
2023/04/12 14:08:47;;;;;;;2.53;2.07;;;;;;;;;;5073060;28;20605;-56
2023/04/12 14:11:13;;;;;;;2.30;1.93;;;;;;;;;;5074130;28;20199;-57
2023/04/12 14:13:39;;;;;;;2.30;1.73;;;;;;;;;;5073997;28;20199;-57
2023/04/12 14:16:07;;;;;;;2.20;2.10;;;;;;;;;;5073835;28;20257;-56
2023/04/12 14:18:33;;;;;;;2.17;1.97;;;;;;;;;;5073932;28;20200;-57
2023/04/12 14:20:59;;;;;;;2.40;2.20;;;;;;;;;;5073896;28;20210;-57
2023/04/12 14:23:25;;;;;;;2.50;2.30;;;;;;;;;;5073779;28;20200;-57
2023/04/12 14:25:52;;;;;;;3.23;2.20;;;;;;;;;;5073728;28;20195;-57
2023/04/12 14:28:20;;;;;;;2.60;1.93;;;;;;;;;;5073655;28;20603;-57
2023/04/12 14:30:49;;;;;;;2.40;2.20;;;;;;;;;;5073715;28;20195;-57
2023/04/12 14:33:16;;;;;;;2.77;2.27;;;;;;;;;;5073590;28;20239;-57
2023/04/12 14:35:42;;;;;;;2.60;2.40;;;;;;;;;;5073969;28;20207;-57
2023/04/12 14:38:08;;;;;;;2.50;2.30;;;;;;;;;;5073187;28;20206;-57
2023/04/12 14:40:34;;;;;;;2.70;2.50;;;;;;;;;;5073464;28;20188;-57
2023/04/12 14:43:00;;;;;;;2.20;2.10;;;;;;;;;;5073530;28;20646;-57